Time;durP1;ratioP1;P1;durP2;ratioP2;P2;SDS_P1;SDS_P2;PMS_P1;PMS_P2;Temp;Humidity;BMP_temperature;BMP_pressure;BME280_temperature;BME280_humidity;BME280_pressure;Samples;Min_cycle;Max_cycle;Signal;HPM_P1;HPM_P2
2022/09/14 00:00:17;;;;;;;3.80;2.20;;;16.80;99.90;;;;;;5201409;28;20029;-73
2022/09/14 00:02:51;;;;;;;2.25;2.00;;;16.80;99.90;;;;;;5203798;28;20049;-74
2022/09/14 00:05:24;;;;;;;2.85;2.30;;;16.70;99.90;;;;;;5203244;28;20040;-73
2022/09/14 00:07:58;;;;;;;2.40;2.00;;;16.70;99.90;;;;;;5209783;28;20476;-74
2022/09/14 00:10:30;;;;;;;4.88;2.22;;;16.70;99.90;;;;;;5226783;28;20025;-73
2022/09/14 00:13:02;;;;;;;3.47;2.63;;;16.70;99.90;;;;;;5209979;28;20025;-73
2022/09/14 00:15:42;;;;;;;2.40;2.20;;;16.70;99.90;;;;;;5224764;28;20211;-73
2022/09/14 00:18:18;;;;;;;2.42;2.22;;;16.70;99.90;;;;;;5225211;28;20031;-75
2022/09/14 00:20:53;;;;;;;2.40;2.20;;;16.70;99.90;;;;;;5243290;28;20036;-73
2022/09/14 00:23:26;;;;;;;2.65;2.45;;;16.70;99.90;;;;;;5212819;28;20029;-73
2022/09/14 00:26:09;;;;;;;3.37;2.57;;;16.70;99.90;;;;;;5217526;28;20619;-72
2022/09/14 00:28:47;;;;;;;2.15;1.95;;;16.70;99.90;;;;;;5200302;28;20262;-73
2022/09/14 00:31:26;;;;;;;3.25;2.40;;;16.70;99.90;;;;;;5185596;28;20047;-73
2022/09/14 00:34:01;;;;;;;2.35;2.15;;;16.70;99.90;;;;;;5200846;28;20024;-73
2022/09/14 00:36:42;;;;;;;2.10;2.00;;;16.80;99.90;;;;;;5213568;28;20383;-72
2022/09/14 00:39:16;;;;;;;4.05;2.53;;;16.70;99.90;;;;;;5214263;28;20036;-73
2022/09/14 00:41:50;;;;;;;2.40;2.20;;;16.80;99.90;;;;;;5173921;28;20055;-73
2022/09/14 00:44:25;;;;;;;2.33;2.13;;;16.70;99.90;;;;;;5218126;28;20039;-73
2022/09/14 00:47:03;;;;;;;;;;;16.60;99.90;;;;;;5211340;28;20040;-73
2022/09/14 00:49:40;;;;;;;3.42;2.47;;;16.50;99.90;;;;;;5199546;28;20320;-73
2022/09/14 00:52:24;;;;;;;2.35;2.05;;;16.30;99.90;;;;;;5206972;28;20037;-73
2022/09/14 00:55:07;;;;;;;2.97;2.40;;;16.20;99.90;;;;;;5187347;28;20068;-75
2022/09/14 00:57:51;;;;;;;2.80;2.33;;;16.10;99.90;;;;;;5219426;28;20270;-74
2022/09/14 01:00:28;;;;;;;3.53;1.90;;;16.00;99.90;;;;;;5203209;28;20477;-74
2022/09/14 01:03:00;;;;;;;3.65;2.00;;;15.80;99.90;;;;;;5182673;28;20045;-74
2022/09/14 01:05:44;;;;;;;3.50;2.05;;;15.90;99.90;;;;;;5165837;28;20063;-74
2022/09/14 01:08:32;;;;;;;2.45;1.80;;;15.80;99.90;;;;;;5224361;28;20051;-73
2022/09/14 01:11:37;;;;;;;2.30;2.10;;;15.80;99.90;;;;;;5221784;28;20032;-73
2022/09/14 01:14:26;;;;;;;2.65;2.40;;;15.70;99.90;;;;;;5218655;28;20043;-73
2022/09/14 01:17:30;;;;;;;2.72;1.92;;;15.70;99.90;;;;;;5188619;28;20539;-73
2022/09/14 01:20:24;;;;;;;2.30;2.10;;;15.60;99.90;;;;;;5211762;28;20033;-73
2022/09/14 01:23:31;;;;;;;2.40;2.20;;;15.60;99.90;;;;;;5210213;28;20017;-74
2022/09/14 01:26:14;;;;;;;3.50;2.42;;;15.60;99.90;;;;;;5200542;28;20040;-74
2022/09/14 01:28:58;;;;;;;3.10;1.92;;;15.70;99.90;;;;;;5217809;28;20036;-75
2022/09/14 01:31:51;;;;;;;2.38;2.17;;;15.80;99.90;;;;;;5202065;28;20044;-75
2022/09/14 01:35:02;;;;;;;2.53;2.30;;;15.80;99.90;;;;;;5217458;28;20036;-75
2022/09/14 01:38:19;;;;;;;6.30;2.75;;;15.90;99.90;;;;;;5223961;28;20041;-73
2022/09/14 01:40:54;;;;;;;2.83;2.63;;;15.90;99.90;;;;;;5244850;28;20043;-73
2022/09/14 01:43:39;;;;;;;2.40;2.20;;;16.00;99.90;;;;;;5238154;28;20028;-73
2022/09/14 01:46:20;;;;;;;4.45;2.60;;;16.00;99.90;;;;;;5196461;28;20041;-74
2022/09/14 01:49:51;;;;;;;2.50;2.22;;;16.00;99.90;;;;;;5213562;28;20025;-73
2022/09/14 01:52:37;;;;;;;3.10;2.17;;;16.00;99.90;;;;;;5164929;28;20060;-74
2022/09/14 01:55:18;;;;;;;2.42;2.13;;;16.10;99.90;;;;;;5156989;28;20071;-73
2022/09/14 01:58:24;;;;;;;2.00;1.85;;;16.10;99.90;;;;;;5155291;28;20034;-73
2022/09/14 02:01:04;;;;;;;2.08;1.88;;;16.10;99.90;;;;;;5173724;28;20397;-74
2022/09/14 02:03:47;;;;;;;2.38;2.17;;;16.10;99.90;;;;;;5156793;28;20270;-73
2022/09/14 02:06:51;;;;;;;3.58;2.17;;;16.10;99.90;;;;;;5145187;28;20050;-73
2022/09/14 02:09:25;;;;;;;2.22;1.83;;;16.10;99.90;;;;;;5107362;28;20054;-74
2022/09/14 02:12:02;;;;;;;3.92;2.10;;;16.00;99.90;;;;;;5110605;29;20051;-74
2022/09/14 02:14:34;;;;;;;2.30;2.08;;;16.10;99.90;;;;;;5098122;29;20054;-74
2022/09/14 02:17:10;;;;;;;3.28;2.10;;;16.10;99.90;;;;;;5104860;29;20039;-74
2022/09/14 02:19:51;;;;;;;2.33;2.13;;;16.10;99.90;;;;;;5097458;29;20055;-73
2022/09/14 02:22:27;;;;;;;2.28;2.08;;;16.00;99.90;;;;;;5112540;29;20091;-74
2022/09/14 02:25:03;;;;;;;3.92;2.20;;;16.00;99.90;;;;;;5112884;29;20057;-74
2022/09/14 02:27:37;;;;;;;3.85;2.30;;;16.00;99.90;;;;;;5115000;28;20490;-74
2022/09/14 02:30:16;;;;;;;4.22;1.90;;;16.00;99.90;;;;;;5152385;28;20517;-74
2022/09/14 02:33:12;;;;;;;3.08;2.10;;;16.00;99.90;;;;;;5153945;28;20042;-73
2022/09/14 02:35:51;;;;;;;1.75;1.65;;;16.00;99.90;;;;;;5180878;28;20030;-73
2022/09/14 02:38:32;;;;;;;2.15;1.95;;;15.90;99.90;;;;;;5144925;28;20065;-73
2022/09/14 02:41:36;;;;;;;2.33;2.13;;;15.90;99.90;;;;;;5136732;28;20038;-74
2022/09/14 02:44:28;;;;;;;2.58;2.00;;;15.90;99.90;;;;;;5145791;28;20046;-73
2022/09/14 02:47:16;;;;;;;2.15;1.95;;;15.80;99.90;;;;;;5214792;28;20036;-73
2022/09/14 02:50:01;;;;;;;4.10;1.98;;;15.80;99.90;;;;;;5198526;28;20560;-74
2022/09/14 02:52:49;;;;;;;;;;;15.70;99.90;;;;;;5201915;28;20040;-74
2022/09/14 02:55:28;;;;;;;1.80;1.70;;;15.70;99.90;;;;;;5199091;28;19908;-74
2022/09/14 02:58:23;;;;;;;3.22;2.17;;;15.80;99.90;;;;;;5180827;28;20047;-73
2022/09/14 03:01:00;;;;;;;2.05;1.73;;;15.90;99.90;;;;;;5181379;28;20041;-73
2022/09/14 03:03:32;;;;;;;3.70;2.28;;;15.90;99.90;;;;;;5202731;28;20040;-74
2022/09/14 03:06:04;;;;;;;2.00;1.80;;;16.00;99.90;;;;;;5214833;28;20056;-73
2022/09/14 03:08:36;;;;;;;2.05;1.80;;;16.10;99.90;;;;;;5181924;28;20037;-73
2022/09/14 03:11:08;;;;;;;1.85;1.75;;;16.10;99.90;;;;;;5193017;28;20042;-73
2022/09/14 03:13:45;;;;;;;3.10;2.03;;;16.10;99.90;;;;;;5217562;28;20040;-75
2022/09/14 03:16:23;;;;;;;2.40;2.03;;;16.20;99.90;;;;;;5218829;28;20043;-75
2022/09/14 03:18:55;;;;;;;1.60;1.50;;;16.20;99.90;;;;;;5219054;28;20036;-75
2022/09/14 03:21:29;;;;;;;2.28;2.08;;;16.20;99.90;;;;;;5235767;28;20028;-74
2022/09/14 03:24:07;;;;;;;3.72;2.08;;;16.10;99.90;;;;;;5231607;28;20035;-74
2022/09/14 03:26:46;;;;;;;1.50;1.40;;;16.00;99.90;;;;;;5234044;28;20047;-74
2022/09/14 03:29:24;;;;;;;2.10;1.90;;;15.90;99.90;;;;;;5208779;28;20055;-74
2022/09/14 03:31:58;;;;;;;2.30;2.10;;;15.80;99.90;;;;;;5220885;28;20053;-74
2022/09/14 03:34:30;;;;;;;4.70;1.98;;;15.80;99.90;;;;;;5224582;28;20037;-74
2022/09/14 03:37:02;;;;;;;3.10;1.98;;;15.80;99.90;;;;;;5237531;28;20036;-74
2022/09/14 03:39:38;;;;;;;2.78;2.22;;;15.90;99.90;;;;;;5218999;28;20032;-74
2022/09/14 03:42:12;;;;;;;1.80;1.70;;;15.80;99.90;;;;;;5235706;28;20028;-74
2022/09/14 03:44:49;;;;;;;2.72;1.83;;;15.90;99.90;;;;;;5234193;28;20032;-74
2022/09/14 03:47:25;;;;;;;3.70;2.10;;;15.90;99.90;;;;;;5216608;28;20036;-75
2022/09/14 03:49:57;;;;;;;2.55;2.00;;;15.80;99.90;;;;;;5181370;28;20044;-74
2022/09/14 03:52:32;;;;;;;4.22;2.00;;;15.90;99.90;;;;;;5182581;28;20265;-75
2022/09/14 03:55:06;;;;;;;3.30;1.80;;;16.00;99.90;;;;;;5195054;28;20041;-75
2022/09/14 03:57:40;;;;;;;;;;;16.00;99.90;;;;;;5237469;28;20028;-74
2022/09/14 04:00:15;;;;;;;2.85;2.13;;;16.00;99.90;;;;;;5243428;28;19908;-75
2022/09/14 04:02:55;;;;;;;2.00;1.88;;;16.10;99.90;;;;;;5233771;28;20044;-74
2022/09/14 04:05:39;;;;;;;2.10;1.88;;;16.10;99.90;;;;;;5183116;28;20049;-74
2022/09/14 04:08:13;;;;;;;1.90;1.80;;;16.20;99.90;;;;;;5175084;28;20048;-74
2022/09/14 04:10:47;;;;;;;2.00;1.85;;;16.20;99.90;;;;;;5217361;28;20589;-74
2022/09/14 04:13:21;;;;;;;1.80;1.70;;;16.20;99.90;;;;;;5202130;28;20025;-74
2022/09/14 04:16:03;;;;;;;2.25;2.05;;;16.20;99.90;;;;;;5201136;28;20068;-74
2022/09/14 04:18:37;;;;;;;3.45;2.08;;;16.20;99.90;;;;;;5184826;28;20055;-74
2022/09/14 04:21:20;;;;;;;3.45;2.00;;;16.10;99.90;;;;;;5184774;28;20039;-74
2022/09/14 04:23:59;;;;;;;2.35;1.90;;;16.20;99.90;;;;;;5216679;28;20071;-74
2022/09/14 04:26:33;;;;;;;2.17;1.98;;;16.20;99.90;;;;;;5217257;28;20048;-74
2022/09/14 04:29:09;;;;;;;2.10;1.95;;;16.20;99.90;;;;;;5200937;28;20033;-74
2022/09/14 04:31:46;;;;;;;2.83;1.80;;;16.20;99.90;;;;;;5193749;28;20494;-73
2022/09/14 04:34:17;;;;;;;4.40;2.33;;;16.20;99.90;;;;;;5196645;28;20045;-74
2022/09/14 04:36:56;;;;;;;2.28;2.08;;;16.20;99.90;;;;;;5213880;28;20039;-73
2022/09/14 04:39:33;;;;;;;4.13;2.60;;;16.10;99.90;;;;;;5182578;28;20407;-73
2022/09/14 04:42:06;;;;;;;2.25;2.05;;;16.10;99.90;;;;;;5186202;28;20281;-73
2022/09/14 04:44:37;;;;;;;3.33;2.25;;;16.10;99.90;;;;;;5218134;28;20368;-73
2022/09/14 04:47:13;;;;;;;2.30;2.10;;;16.00;99.90;;;;;;5201432;28;20047;-74
2022/09/14 04:49:47;;;;;;;3.33;2.47;;;16.00;99.90;;;;;;5217352;28;20045;-73
2022/09/14 04:52:19;;;;;;;2.30;2.10;;;15.90;99.90;;;;;;5182462;28;20208;-73
2022/09/14 04:54:53;;;;;;;3.83;2.05;;;16.00;99.90;;;;;;5200618;28;20039;-73
2022/09/14 04:57:27;;;;;;;3.85;2.40;;;16.00;99.90;;;;;;5216627;28;20049;-73
2022/09/14 05:00:03;;;;;;;2.33;2.13;;;16.00;99.90;;;;;;5222017;28;20032;-76
2022/09/14 05:02:47;;;;;;;7.22;3.22;;;16.10;99.90;;;;;;5217506;28;20590;-74
2022/09/14 05:05:21;;;;;;;2.97;2.40;;;16.10;99.90;;;;;;5186975;28;20045;-73
2022/09/14 05:08:03;;;;;;;3.42;2.63;;;16.10;99.90;;;;;;5199977;28;20033;-73
2022/09/14 05:10:40;;;;;;;2.55;2.30;;;16.20;99.90;;;;;;5184641;28;20028;-73
2022/09/14 05:13:15;;;;;;;2.75;1.98;;;16.20;99.90;;;;;;5199430;28;20035;-73
2022/09/14 05:15:49;;;;;;;3.42;2.40;;;16.20;99.90;;;;;;5218875;28;20516;-73
2022/09/14 05:18:24;;;;;;;2.83;2.00;;;16.30;99.90;;;;;;5187001;28;20071;-73
2022/09/14 05:20:59;;;;;;;2.95;2.15;;;16.40;99.90;;;;;;5200388;28;20047;-74
2022/09/14 05:23:32;;;;;;;;;;;16.40;99.90;;;;;;5184697;28;20032;-73
2022/09/14 05:26:10;;;;;;;2.42;2.10;;;16.50;99.90;;;;;;5209282;28;19952;-75
2022/09/14 05:28:41;;;;;;;3.78;1.90;;;16.50;99.90;;;;;;5216479;28;20899;-75
2022/09/14 05:31:16;;;;;;;3.00;2.25;;;16.60;99.90;;;;;;5201222;28;20124;-75
2022/09/14 05:33:49;;;;;;;2.35;2.15;;;16.70;99.90;;;;;;5195058;28;20045;-75
2022/09/14 05:36:25;;;;;;;2.83;2.22;;;16.80;99.90;;;;;;5200583;28;20051;-74
2022/09/14 05:39:01;;;;;;;2.47;2.28;;;16.80;99.90;;;;;;5198623;28;20060;-74
2022/09/14 05:41:33;;;;;;;3.42;2.20;;;16.80;99.90;;;;;;5201524;28;20031;-73
2022/09/14 05:44:08;;;;;;;2.47;2.13;;;16.80;99.90;;;;;;5201084;28;20071;-74
2022/09/14 05:46:44;;;;;;;2.30;2.10;;;16.90;99.90;;;;;;5199107;28;20036;-74
2022/09/14 05:49:15;;;;;;;2.72;2.42;;;16.90;99.90;;;;;;5218512;28;20222;-74
2022/09/14 05:51:47;;;;;;;5.60;2.38;;;16.90;99.90;;;;;;5223775;28;20033;-74
2022/09/14 05:54:22;;;;;;;1.90;1.80;;;17.00;99.90;;;;;;5198368;28;20020;-74
2022/09/14 05:57:06;;;;;;;3.05;2.67;;;17.10;99.90;;;;;;5196866;28;20027;-73
2022/09/14 05:59:47;;;;;;;;;;;17.10;99.90;;;;;;5198775;28;20055;-74
2022/09/14 06:02:18;;;;;;;2.38;1.88;;;17.20;99.90;;;;;;5200835;28;19919;-74
2022/09/14 06:04:50;;;;;;;3.13;1.95;;;17.30;99.90;;;;;;5210624;28;20055;-74
2022/09/14 06:07:22;;;;;;;2.78;1.83;;;17.40;99.90;;;;;;5215189;28;20051;-74
2022/09/14 06:09:54;;;;;;;2.92;2.05;;;17.60;99.90;;;;;;5211754;28;20117;-74
2022/09/14 06:12:28;;;;;;;2.33;1.98;;;17.70;99.90;;;;;;5190856;28;20052;-74
2022/09/14 06:14:59;;;;;;;2.65;2.45;;;17.80;99.90;;;;;;5214222;28;20039;-74
2022/09/14 06:17:33;;;;;;;2.22;1.98;;;17.70;99.90;;;;;;5212357;28;20043;-74
2022/09/14 06:20:07;;;;;;;2.83;2.30;;;17.70;99.90;;;;;;5210026;28;20045;-74
2022/09/14 06:22:41;;;;;;;2.55;2.35;;;17.80;99.90;;;;;;5195313;28;20047;-74
2022/09/14 06:25:13;;;;;;;3.83;2.55;;;17.80;99.90;;;;;;5213846;28;20051;-74
2022/09/14 06:27:44;;;;;;;3.90;2.28;;;17.70;99.90;;;;;;5225955;28;20045;-74
2022/09/14 06:30:16;;;;;;;4.13;2.78;;;17.70;99.90;;;;;;5215839;28;20436;-74
2022/09/14 06:32:47;;;;;;;6.13;2.78;;;17.50;99.90;;;;;;5216536;28;20041;-74
2022/09/14 06:35:19;;;;;;;2.63;2.20;;;17.60;99.90;;;;;;5230446;28;20610;-74
2022/09/14 06:37:54;;;;;;;3.28;2.20;;;17.60;99.90;;;;;;5200317;28;20505;-74
2022/09/14 06:40:27;;;;;;;2.80;2.40;;;17.60;99.90;;;;;;5190784;28;20037;-74
2022/09/14 06:43:01;;;;;;;3.80;2.35;;;17.60;99.90;;;;;;5214423;28;20053;-74
2022/09/14 06:45:35;;;;;;;3.15;2.80;;;17.70;99.90;;;;;;5202333;28;20383;-74
2022/09/14 06:48:06;;;;;;;3.63;2.42;;;17.70;99.90;;;;;;5209777;28;20041;-75
2022/09/14 06:50:38;;;;;;;4.38;2.60;;;17.80;99.90;;;;;;5214625;28;20045;-74
2022/09/14 06:53:12;;;;;;;3.00;2.70;;;17.80;99.90;;;;;;5215712;28;20045;-73
2022/09/14 06:55:44;;;;;;;4.07;2.92;;;18.00;99.90;;;;;;5220470;28;20112;-73
2022/09/14 06:58:15;;;;;;;3.03;2.58;;;18.10;99.90;;;;;;5212706;28;20049;-72
2022/09/14 07:00:50;;;;;;;3.97;2.67;;;18.20;99.90;;;;;;5214191;28;20039;-72
2022/09/14 07:03:21;;;;;;;2.78;2.25;;;18.10;99.90;;;;;;5203660;28;20053;-73
2022/09/14 07:06:07;;;;;;;3.28;2.50;;;18.10;99.90;;;;;;5209854;28;20135;-73
2022/09/14 07:08:41;;;;;;;6.13;3.13;;;18.20;99.90;;;;;;5202198;28;20042;-73
2022/09/14 07:11:16;;;;;;;3.03;2.72;;;18.30;99.90;;;;;;5236139;28;20031;-73
2022/09/14 07:13:51;;;;;;;3.22;2.35;;;18.40;99.90;;;;;;5231484;28;20037;-72
2022/09/14 07:16:25;;;;;;;4.38;2.97;;;18.70;99.90;;;;;;5218064;28;20041;-72
2022/09/14 07:19:03;;;;;;;5.75;3.13;;;18.90;99.90;;;;;;5235162;28;20041;-73
2022/09/14 07:21:35;;;;;;;4.50;3.28;;;19.10;99.90;;;;;;5235018;28;20032;-72
2022/09/14 07:24:06;;;;;;;4.38;3.22;;;19.50;99.90;;;;;;5235087;28;20040;-73
2022/09/14 07:26:41;;;;;;;6.85;3.20;;;19.70;99.90;;;;;;5231820;28;20238;-73
2022/09/14 07:29:21;;;;;;;4.93;3.05;;;19.80;99.90;;;;;;5234467;28;20473;-73
2022/09/14 07:31:53;;;;;;;6.55;3.50;;;20.00;99.90;;;;;;5217103;28;20030;-72
2022/09/14 07:34:25;;;;;;;4.63;2.65;;;20.30;99.90;;;;;;5230480;28;20362;-72
2022/09/14 07:36:56;;;;;;;4.47;2.65;;;20.40;99.90;;;;;;5238424;28;20048;-72
2022/09/14 07:39:28;;;;;;;2.72;2.42;;;20.40;99.90;;;;;;5238977;28;20049;-72
2022/09/14 07:42:02;;;;;;;2.75;2.10;;;20.50;99.90;;;;;;5215956;28;20052;-72
2022/09/14 07:44:35;;;;;;;5.60;2.17;;;20.80;99.90;;;;;;5215677;28;20044;-72
2022/09/14 07:47:09;;;;;;;5.22;3.00;;;21.00;99.90;;;;;;5219245;28;20102;-74
2022/09/14 07:49:40;;;;;;;3.30;2.70;;;21.40;99.90;;;;;;5237464;28;20066;-72
2022/09/14 07:52:17;;;;;;;4.65;2.50;;;21.60;99.90;;;;;;5220662;28;20052;-72
2022/09/14 07:54:48;;;;;;;3.15;2.58;;;21.80;99.90;;;;;;5199860;28;20048;-72
2022/09/14 07:57:20;;;;;;;3.80;2.70;;;22.10;99.90;;;;;;5213322;28;20039;-74
2022/09/14 07:59:54;;;;;;;2.47;2.22;;;22.40;99.90;;;;;;5237587;28;20039;-72
2022/09/14 08:02:27;;;;;;;2.47;2.10;;;22.70;99.90;;;;;;5232523;28;20047;-73
2022/09/14 08:05:04;;;;;;;3.20;2.40;;;23.00;99.90;;;;;;5223074;28;20079;-73
2022/09/14 08:07:36;;;;;;;3.70;3.10;;;23.40;99.90;;;;;;5222307;28;20030;-72
2022/09/14 08:10:10;;;;;;;5.18;3.67;;;23.10;99.90;;;;;;5218059;28;20052;-74
2022/09/14 08:12:42;;;;;;;7.03;3.80;;;23.20;99.90;;;;;;5201303;28;20041;-72
2022/09/14 08:15:16;;;;;;;5.97;3.40;;;23.20;99.90;;;;;;5200689;28;20044;-73
2022/09/14 08:17:49;;;;;;;3.78;3.38;;;23.30;99.90;;;;;;5218357;28;20029;-73
2022/09/14 08:20:22;;;;;;;5.40;2.70;;;23.40;99.90;;;;;;5209627;28;20052;-73
2022/09/14 08:22:54;;;;;;;4.97;3.05;;;23.70;99.90;;;;;;5234059;28;20071;-73
2022/09/14 08:25:25;;;;;;;5.18;3.47;;;23.90;99.90;;;;;;5200445;28;20029;-73
2022/09/14 08:27:59;;;;;;;5.43;3.30;;;24.00;99.90;;;;;;5220021;28;20029;-73
2022/09/14 08:30:32;;;;;;;5.50;3.60;;;24.00;99.90;;;;;;5197131;28;20053;-73
2022/09/14 08:33:06;;;;;;;5.43;3.60;;;24.20;99.90;;;;;;5197971;28;20045;-73
2022/09/14 08:35:44;;;;;;;4.80;3.75;;;24.10;99.90;;;;;;5209965;28;20036;-73
2022/09/14 08:38:16;;;;;;;3.95;3.53;;;24.00;99.90;;;;;;5217154;28;20048;-72
2022/09/14 08:40:50;;;;;;;8.18;3.75;;;24.00;99.90;;;;;;5186691;28;20047;-72
2022/09/14 08:43:26;;;;;;;5.55;4.40;;;24.10;99.90;;;;;;5200988;28;20025;-72
2022/09/14 08:46:08;;;;;;;5.93;3.63;;;24.40;99.90;;;;;;5188493;28;20029;-73
2022/09/14 08:48:49;;;;;;;5.13;3.20;;;24.80;99.90;;;;;;5198926;28;20041;-73
2022/09/14 08:51:21;;;;;;;4.00;3.10;;;25.40;99.90;;;;;;5199357;28;20068;-73
2022/09/14 08:53:58;;;;;;;6.22;3.90;;;25.70;99.90;;;;;;5198853;28;20081;-73
2022/09/14 08:56:38;;;;;;;6.00;4.60;;;25.90;99.90;;;;;;5197743;28;20051;-73
2022/09/14 08:59:40;;;;;;;5.47;3.88;;;26.00;99.90;;;;;;5199928;28;20039;-73
2022/09/14 09:02:45;;;;;;;5.57;3.47;;;26.10;99.90;;;;;;5219204;28;20109;-72
2022/09/14 09:05:38;;;;;;;4.18;2.97;;;26.20;99.90;;;;;;5217700;28;20053;-72
2022/09/14 09:08:21;;;;;;;6.40;3.92;;;26.50;99.90;;;;;;5221078;28;20029;-73
2022/09/14 09:10:55;;;;;;;4.40;3.42;;;26.60;99.90;;;;;;5236142;28;20040;-73
2022/09/14 09:13:35;;;;;;;7.38;4.13;;;26.70;99.90;;;;;;5220284;28;20040;-73
2022/09/14 09:16:09;;;;;;;9.55;3.33;;;26.60;99.90;;;;;;5220860;28;20225;-73
2022/09/14 09:18:52;;;;;;;5.60;2.97;;;26.60;99.90;;;;;;5226373;28;20035;-73
2022/09/14 09:21:48;;;;;;;4.63;3.25;;;26.60;99.90;;;;;;5222397;28;20041;-72
2022/09/14 09:24:47;;;;;;;4.30;3.13;;;27.00;99.90;;;;;;5221483;28;20279;-73
2022/09/14 09:27:26;;;;;;;8.70;3.63;;;27.30;99.90;;;;;;5216826;28;20028;-73
2022/09/14 09:30:01;;;;;;;4.85;3.90;;;26.90;99.90;;;;;;5227217;28;20028;-72
2022/09/14 09:32:35;;;;;;;3.58;3.22;;;26.70;99.90;;;;;;5205380;28;20051;-74
2022/09/14 09:35:09;;;;;;;6.22;3.67;;;26.70;99.90;;;;;;5206412;28;20054;-72
2022/09/14 09:37:45;;;;;;;6.30;3.50;;;26.60;99.90;;;;;;5202903;28;20044;-75
2022/09/14 09:40:39;;;;;;;6.15;3.22;;;26.30;99.90;;;;;;5218921;28;20047;-73
2022/09/14 09:43:20;;;;;;;4.55;3.55;;;26.00;99.90;;;;;;5221200;28;20040;-73
2022/09/14 09:46:02;;;;;;;5.22;3.50;;;26.00;99.90;;;;;;5218977;28;20028;-74
2022/09/14 09:48:43;;;;;;;3.25;2.85;;;26.20;99.90;;;;;;5219527;28;20051;-73
2022/09/14 09:51:32;;;;;;;3.67;2.97;;;26.40;99.90;;;;;;5218876;28;20040;-73
2022/09/14 09:54:15;;;;;;;5.57;3.38;;;26.40;99.90;;;;;;5219080;28;20246;-73
2022/09/14 09:57:04;;;;;;;4.65;3.40;;;26.20;99.90;;;;;;5240965;28;20395;-73
2022/09/14 09:59:43;;;;;;;3.63;2.90;;;26.40;99.90;;;;;;5222356;28;20036;-73
2022/09/14 10:02:26;;;;;;;4.07;3.42;;;26.70;99.90;;;;;;5218507;28;20045;-73
2022/09/14 10:05:21;;;;;;;5.03;3.42;;;26.60;99.90;;;;;;5201373;28;20517;-72
2022/09/14 10:07:58;;;;;;;4.45;3.25;;;26.10;99.90;;;;;;5179854;28;20055;-73
2022/09/14 10:10:41;;;;;;;4.68;2.67;;;25.40;99.90;;;;;;5196471;28;20037;-72
2022/09/14 10:13:27;;;;;;;4.50;2.97;;;25.50;99.90;;;;;;5200353;28;20345;-73
2022/09/14 10:16:17;;;;;;;2.97;2.60;;;25.90;99.90;;;;;;5181066;28;20327;-73
2022/09/14 10:18:56;;;;;;;6.07;3.70;;;26.30;99.90;;;;;;5209197;28;20033;-73
2022/09/14 10:21:33;;;;;;;3.88;3.38;;;26.50;99.90;;;;;;5196149;28;20033;-74
2022/09/14 10:24:19;;;;;;;3.55;2.90;;;26.30;99.90;;;;;;5208273;28;20064;-74
2022/09/14 10:26:56;;;;;;;6.55;2.88;;;25.90;99.90;;;;;;5212022;28;20375;-74
2022/09/14 10:29:41;;;;;;;3.08;2.78;;;25.40;99.90;;;;;;5199518;28;20035;-74
2022/09/14 10:32:19;;;;;;;;;;;25.10;99.90;;;;;;5213618;28;20099;-73
2022/09/14 10:34:50;;;;;;;3.75;3.17;;;24.90;99.90;;;;;;5201311;28;19917;-73
2022/09/14 10:37:41;;;;;;;3.78;3.17;;;24.60;99.90;;;;;;5201261;28;20564;-73
2022/09/14 10:40:22;;;;;;;6.90;3.30;;;24.30;99.90;;;;;;5198527;28;20372;-73
2022/09/14 10:43:13;;;;;;;4.55;3.40;;;24.10;99.90;;;;;;5198839;28;20044;-73
2022/09/14 10:46:00;;;;;;;5.25;3.35;;;24.10;99.90;;;;;;5197882;28;20045;-73
2022/09/14 10:49:10;;;;;;;3.92;3.33;;;24.10;99.90;;;;;;5199930;28;20027;-73
2022/09/14 10:52:02;;;;;;;4.40;3.42;;;24.00;99.90;;;;;;5184389;28;20135;-73
2022/09/14 10:55:18;;;;;;;6.75;3.72;;;24.10;99.90;;;;;;5177639;28;20053;-73
2022/09/14 10:58:30;;;;;;;7.40;3.63;;;23.80;99.90;;;;;;5131959;28;20413;-73
2022/09/14 11:01:27;;;;;;;6.40;3.47;;;23.50;99.90;;;;;;5131993;28;20606;-72
2022/09/14 11:04:21;;;;;;;4.15;3.45;;;23.30;99.90;;;;;;5123945;28;20047;-72
2022/09/14 11:07:31;;;;;;;3.33;2.97;;;23.30;99.90;;;;;;5141981;28;20583;-73
2022/09/14 11:10:50;;;;;;;3.45;3.15;;;23.50;99.90;;;;;;5136482;28;20065;-73
2022/09/14 11:13:49;;;;;;;5.35;4.03;;;23.30;99.90;;;;;;5130138;28;20059;-73
2022/09/14 11:16:46;;;;;;;5.38;4.18;;;22.80;99.90;;;;;;5129548;28;20701;-73
2022/09/14 11:19:35;;;;;;;12.15;4.25;;;22.60;99.90;;;;;;5136019;28;20038;-73
2022/09/14 11:22:18;;;;;;;6.38;3.80;;;22.30;99.90;;;;;;5130847;28;20478;-72
2022/09/14 11:25:07;;;;;;;4.88;3.55;;;22.30;99.90;;;;;;5127985;28;20530;-73
2022/09/14 11:27:49;;;;;;;5.63;3.90;;;22.30;99.90;;;;;;5112795;28;20039;-72
2022/09/14 11:30:38;;;;;;;4.30;3.58;;;22.40;99.90;;;;;;5131244;28;20039;-73
2022/09/14 11:33:20;;;;;;;4.88;3.60;;;22.30;99.90;;;;;;5159219;28;20053;-73
2022/09/14 11:35:58;;;;;;;4.63;3.78;;;22.50;99.90;;;;;;5214118;28;20033;-73
2022/09/14 11:38:41;;;;;;;4.60;3.28;;;22.60;99.90;;;;;;5194644;28;20033;-73
2022/09/14 11:41:32;;;;;;;5.20;3.22;;;22.70;99.90;;;;;;5197351;28;20480;-73
2022/09/14 11:44:18;;;;;;;5.70;3.03;;;23.00;99.90;;;;;;5198098;28;20040;-73
2022/09/14 11:47:21;;;;;;;4.72;3.20;;;23.20;99.90;;;;;;5197961;28;20029;-73
2022/09/14 11:50:19;;;;;;;3.78;3.30;;;23.20;99.90;;;;;;5200527;28;20314;-72
2022/09/14 11:53:11;;;;;;;5.25;3.30;;;23.10;99.90;;;;;;5200253;28;20096;-74
2022/09/14 11:55:48;;;;;;;3.72;2.75;;;23.40;99.90;;;;;;5199889;28;20021;-74
2022/09/14 11:58:28;;;;;;;4.70;3.28;;;23.50;99.90;;;;;;5200486;28;20380;-74
2022/09/14 12:01:26;;;;;;;4.85;2.70;;;23.80;99.90;;;;;;5201415;28;20036;-74
2022/09/14 12:04:00;;;;;;;3.97;3.40;;;24.40;99.90;;;;;;5219264;28;20424;-74
2022/09/14 12:06:35;;;;;;;;;;;24.90;99.90;;;;;;5206440;28;20076;-73
2022/09/14 12:09:19;;;;;;;3.88;3.33;;;25.10;99.90;;;;;;5210510;28;19923;-73
2022/09/14 12:11:58;;;;;;;5.72;3.53;;;25.00;99.90;;;;;;5218589;28;20039;-73
2022/09/14 12:14:35;;;;;;;4.88;3.58;;;25.00;99.90;;;;;;5203685;28;20375;-73
2022/09/14 12:17:41;;;;;;;3.17;2.85;;;24.50;99.90;;;;;;5201804;28;20029;-75
2022/09/14 12:20:36;;;;;;;5.25;3.90;;;25.20;99.90;;;;;;5217838;28;20047;-73
2022/09/14 12:23:35;;;;;;;6.82;3.63;;;26.30;99.90;;;;;;5217616;28;20025;-73
2022/09/14 12:26:09;;;;;;;4.78;3.58;;;26.60;99.90;;;;;;5219289;28;20217;-74
2022/09/14 12:28:47;;;;;;;4.38;3.80;;;26.70;99.90;;;;;;5218980;28;20043;-75
2022/09/14 12:31:57;;;;;;;3.83;3.22;;;26.40;99.90;;;;;;5216711;28;20049;-73
2022/09/14 12:34:32;;;;;;;3.67;3.38;;;26.10;99.90;;;;;;5217601;28;20020;-73
2022/09/14 12:37:30;;;;;;;;;;;26.00;99.90;;;;;;5197122;28;20041;-73
2022/09/14 12:40:20;;;;;;;5.88;3.13;;;26.00;99.90;;;;;;5178885;28;20202;-73
2022/09/14 12:42:51;;;;;;;5.18;3.60;;;26.30;99.90;;;;;;5233612;28;20043;-73
2022/09/14 12:45:52;;;;;;;3.75;3.40;;;26.30;99.90;;;;;;5197335;28;20052;-73
2022/09/14 12:48:48;;;;;;;5.20;3.90;;;26.30;99.90;;;;;;5197830;28;20041;-72
2022/09/14 12:51:32;;;;;;;4.25;3.55;;;25.70;99.90;;;;;;5198366;28;20048;-72
2022/09/14 12:54:18;;;;;;;3.42;3.10;;;25.40;99.90;;;;;;5203865;28;20290;-72
2022/09/14 12:57:48;;;;;;;3.83;3.40;;;25.70;99.90;;;;;;5196409;28;20040;-72
2022/09/14 13:00:25;;;;;;;3.22;2.92;;;26.60;99.90;;;;;;5207086;28;20043;-74
2022/09/14 13:03:08;;;;;;;7.88;3.13;;;27.00;99.90;;;;;;5201965;28;20036;-72
2022/09/14 13:05:43;;;;;;;4.13;3.50;;;27.30;99.90;;;;;;5201686;28;20056;-72
2022/09/14 13:08:25;;;;;;;10.30;3.00;;;27.20;99.90;;;;;;5214613;28;20384;-73
2022/09/14 13:11:05;;;;;;;4.72;3.30;;;27.60;99.90;;;;;;5216675;28;20585;-74
2022/09/14 13:13:42;;;;;;;3.78;3.30;;;27.00;99.90;;;;;;5212825;28;20048;-74
2022/09/14 13:16:42;;;;;;;5.07;3.25;;;26.90;99.90;;;;;;5219478;28;20039;-72
2022/09/14 13:19:29;;;;;;;5.28;3.28;;;27.40;99.90;;;;;;5219095;28;20036;-73
2022/09/14 13:22:23;;;;;;;6.53;3.13;;;27.70;99.90;;;;;;5216568;28;20612;-73
2022/09/14 13:24:57;;;;;;;7.43;3.50;;;28.30;99.90;;;;;;5213777;28;20048;-72
2022/09/14 13:27:39;;;;;;;5.50;2.78;;;29.80;99.90;;;;;;5227944;28;20067;-73
2022/09/14 13:30:21;;;;;;;6.43;3.05;;;30.50;99.90;;;;;;5214332;28;20029;-72
2022/09/14 13:33:00;;;;;;;4.80;3.20;;;30.50;99.90;;;;;;5210021;28;20041;-73
2022/09/14 13:35:47;;;;;;;3.92;2.85;;;30.10;99.90;;;;;;5213044;28;20432;-73
2022/09/14 13:38:36;;;;;;;4.25;3.08;;;29.60;99.90;;;;;;5212081;28;20044;-73
2022/09/14 13:41:23;;;;;;;4.60;3.28;;;29.80;99.90;;;;;;5214498;28;20619;-72
2022/09/14 13:43:56;;;;;;;3.95;3.05;;;30.30;99.90;;;;;;5212763;28;20341;-72
2022/09/14 13:46:28;;;;;;;4.57;3.22;;;30.70;99.90;;;;;;5215255;28;20039;-72
2022/09/14 13:48:59;;;;;;;4.93;3.08;;;30.40;99.90;;;;;;5216328;28;20035;-72
2022/09/14 13:51:31;;;;;;;4.00;3.00;;;30.60;99.90;;;;;;5218166;28;20322;-72
2022/09/14 13:54:24;;;;;;;3.63;2.70;;;31.70;99.90;;;;;;5213327;28;20037;-72
2022/09/14 13:57:16;;;;;;;5.20;3.22;;;30.50;99.90;;;;;;5215853;28;20421;-72